KSSF/SSF METAR and TAF weather

Enter ICAO airport designator
Station Type Date Time Source
KSSF METAR 2020/09/23 02:53 UTC NOAA

KSSF 230253Z AUTO 01009KT 10SM OVC023 23/19 A2992 RMK AO2 SLP122 T02330194 51014


Station Type Date Time Source
KSSF Decoded METAR 2020/09/23 02:53 UTC NOAA

SAN ANTONIO STINSON MUNI, TX, United States (KSSF) 29-20N 098-28W 176M
Sep 22, 2020 - 10:53 PM EDT / 2020.09.23 0253 UTC
Wind: from the N (010 degrees) at 10 MPH (9 KT):0
Visibility: 10 mile(s):0
Sky conditions: overcast
Temperature: 73.9 F (23.3 C)
Dew Point: 66.9 F (19.4 C)
Relative Humidity: 78%
Pressure (altimeter): 29.92 in. Hg (1013 hPa)
Pressure tendency: 0.04 inches (1.4 hPa) higher than three hours ago
ob: KSSF 230253Z AUTO 01009KT 10SM OVC023 23/19 A2992 RMK AO2 SLP122 T02330194 51014
cycle: 3

Station Type Date Time Source
KSSF TAF 2020/09/23 02:24 UTC NOAA

TAF
AMD KSSF 230223Z 2302/2324 02010KT P6SM OVC023
FM230700 36006KT P6SM OVC015
FM231600 36007KT P6SM SCT040

Example: see airport list